sensor_id;sensor_type;location;lat;lon;timestamp;temperature;humidity
25640;DHT22;13497;48.322;16.204;2023-08-30T00:00:44;15.60;99.90
25640;DHT22;13497;48.322;16.204;2023-08-30T00:03:10;15.60;99.90
25640;DHT22;13497;48.322;16.204;2023-08-30T00:05:39;15.50;99.90
25640;DHT22;13497;48.322;16.204;2023-08-30T00:08:05;15.50;99.90
25640;DHT22;13497;48.322;16.204;2023-08-30T00:10:31;15.60;99.90
25640;DHT22;13497;48.322;16.204;2023-08-30T00:12:57;15.60;99.90
25640;DHT22;13497;48.322;16.204;2023-08-30T00:15:23;15.60;99.90
25640;DHT22;13497;48.322;16.204;2023-08-30T00:17:49;15.60;99.90
25640;DHT22;13497;48.322;16.204;2023-08-30T00:20:17;15.60;99.90
25640;DHT22;13497;48.322;16.204;2023-08-30T00:22:43;15.60;99.90
25640;DHT22;13497;48.322;16.204;2023-08-30T00:25:08;15.60;99.90
25640;DHT22;13497;48.322;16.204;2023-08-30T00:27:34;15.70;99.90
25640;DHT22;13497;48.322;16.204;2023-08-30T00:30:00;15.60;99.90
25640;DHT22;13497;48.322;16.204;2023-08-30T00:32:26;15.60;99.90
25640;DHT22;13497;48.322;16.204;2023-08-30T00:34:52;15.70;99.90
25640;DHT22;13497;48.322;16.204;2023-08-30T00:37:17;15.60;99.90
25640;DHT22;13497;48.322;16.204;2023-08-30T00:39:43;15.60;99.90
25640;DHT22;13497;48.322;16.204;2023-08-30T00:42:09;15.60;99.90
25640;DHT22;13497;48.322;16.204;2023-08-30T00:44:35;15.70;99.90
25640;DHT22;13497;48.322;16.204;2023-08-30T00:47:02;15.60;99.90
25640;DHT22;13497;48.322;16.204;2023-08-30T00:49:31;15.60;99.90
25640;DHT22;13497;48.322;16.204;2023-08-30T00:52:05;15.60;99.90
25640;DHT22;13497;48.322;16.204;2023-08-30T00:54:31;15.60;99.90
25640;DHT22;13497;48.322;16.204;2023-08-30T00:56:58;15.60;99.90
25640;DHT22;13497;48.322;16.204;2023-08-30T00:59:26;15.60;99.90
25640;DHT22;13497;48.322;16.204;2023-08-30T01:01:52;15.70;99.90
25640;DHT22;13497;48.322;16.204;2023-08-30T01:04:19;15.60;99.90
25640;DHT22;13497;48.322;16.204;2023-08-30T01:06:45;15.60;99.90
25640;DHT22;13497;48.322;16.204;2023-08-30T01:09:11;15.60;99.90
25640;DHT22;13497;48.322;16.204;2023-08-30T01:11:51;15.60;99.90
25640;DHT22;13497;48.322;16.204;2023-08-30T01:17:10;15.70;99.90
25640;DHT22;13497;48.322;16.204;2023-08-30T01:19:57;15.70;99.90
25640;DHT22;13497;48.322;16.204;2023-08-30T01:22:37;15.70;99.90
25640;DHT22;13497;48.322;16.204;2023-08-30T01:27:55;15.70;99.90
25640;DHT22;13497;48.322;16.204;2023-08-30T01:30:21;15.80;99.90
25640;DHT22;13497;48.322;16.204;2023-08-30T01:32:50;15.80;99.90
25640;DHT22;13497;48.322;16.204;2023-08-30T01:35:16;15.80;99.90
25640;DHT22;13497;48.322;16.204;2023-08-30T01:37:48;15.80;99.90
25640;DHT22;13497;48.322;16.204;2023-08-30T01:40:16;15.80;99.90
25640;DHT22;13497;48.322;16.204;2023-08-30T01:42:44;15.80;99.90
25640;DHT22;13497;48.322;16.204;2023-08-30T01:45:11;15.90;99.90
25640;DHT22;13497;48.322;16.204;2023-08-30T01:47:41;15.90;99.90
25640;DHT22;13497;48.322;16.204;2023-08-30T01:50:09;15.90;99.90
25640;DHT22;13497;48.322;16.204;2023-08-30T01:52:36;15.90;99.90
25640;DHT22;13497;48.322;16.204;2023-08-30T01:55:03;15.90;99.90
25640;DHT22;13497;48.322;16.204;2023-08-30T01:57:29;16.00;99.90
25640;DHT22;13497;48.322;16.204;2023-08-30T01:59:55;15.90;99.90
25640;DHT22;13497;48.322;16.204;2023-08-30T02:02:20;16.00;99.90
25640;DHT22;13497;48.322;16.204;2023-08-30T02:04:46;15.90;99.90
25640;DHT22;13497;48.322;16.204;2023-08-30T02:07:28;16.00;99.90
25640;DHT22;13497;48.322;16.204;2023-08-30T02:10:02;16.00;99.90
25640;DHT22;13497;48.322;16.204;2023-08-30T02:12:49;15.90;99.90
25640;DHT22;13497;48.322;16.204;2023-08-30T02:15:16;15.90;99.90
25640;DHT22;13497;48.322;16.204;2023-08-30T02:17:44;15.90;99.90
25640;DHT22;13497;48.322;16.204;2023-08-30T02:20:10;15.80;99.90
25640;DHT22;13497;48.322;16.204;2023-08-30T02:22:36;15.70;99.90
25640;DHT22;13497;48.322;16.204;2023-08-30T02:25:02;15.70;99.90
25640;DHT22;13497;48.322;16.204;2023-08-30T02:27:32;15.70;99.90
25640;DHT22;13497;48.322;16.204;2023-08-30T02:29:58;15.70;99.90
25640;DHT22;13497;48.322;16.204;2023-08-30T02:32:24;15.70;99.90
25640;DHT22;13497;48.322;16.204;2023-08-30T02:34:51;15.70;99.90
25640;DHT22;13497;48.322;16.204;2023-08-30T02:37:18;15.70;99.90
25640;DHT22;13497;48.322;16.204;2023-08-30T02:39:44;15.70;99.90
25640;DHT22;13497;48.322;16.204;2023-08-30T02:42:10;15.60;99.90
25640;DHT22;13497;48.322;16.204;2023-08-30T02:44:36;15.60;99.90
25640;DHT22;13497;48.322;16.204;2023-08-30T02:47:01;15.50;99.90
25640;DHT22;13497;48.322;16.204;2023-08-30T02:49:27;15.50;99.90
25640;DHT22;13497;48.322;16.204;2023-08-30T02:51:53;15.50;99.90
25640;DHT22;13497;48.322;16.204;2023-08-30T02:54:18;15.50;99.90
25640;DHT22;13497;48.322;16.204;2023-08-30T02:56:45;15.50;99.90
25640;DHT22;13497;48.322;16.204;2023-08-30T02:59:11;15.50;99.90
25640;DHT22;13497;48.322;16.204;2023-08-30T03:01:37;15.50;99.90
25640;DHT22;13497;48.322;16.204;2023-08-30T03:04:07;15.60;99.90
25640;DHT22;13497;48.322;16.204;2023-08-30T03:06:33;15.60;99.90
25640;DHT22;13497;48.322;16.204;2023-08-30T03:08:59;15.50;99.90
25640;DHT22;13497;48.322;16.204;2023-08-30T03:11:25;15.50;99.90
25640;DHT22;13497;48.322;16.204;2023-08-30T03:13:53;15.50;99.90
25640;DHT22;13497;48.322;16.204;2023-08-30T03:16:19;15.60;99.90
25640;DHT22;13497;48.322;16.204;2023-08-30T03:18:45;15.60;99.90
25640;DHT22;13497;48.322;16.204;2023-08-30T03:21:11;15.60;99.90
25640;DHT22;13497;48.322;16.204;2023-08-30T03:23:37;15.50;99.90
25640;DHT22;13497;48.322;16.204;2023-08-30T03:26:10;15.40;99.90
25640;DHT22;13497;48.322;16.204;2023-08-30T03:28:36;15.40;99.90
25640;DHT22;13497;48.322;16.204;2023-08-30T03:31:14;15.40;99.90
25640;DHT22;13497;48.322;16.204;2023-08-30T03:33:41;15.30;99.90
25640;DHT22;13497;48.322;16.204;2023-08-30T03:36:07;15.30;99.90
25640;DHT22;13497;48.322;16.204;2023-08-30T03:38:34;15.30;99.90
25640;DHT22;13497;48.322;16.204;2023-08-30T03:41:00;15.20;99.90
25640;DHT22;13497;48.322;16.204;2023-08-30T03:43:25;15.10;99.90
25640;DHT22;13497;48.322;16.204;2023-08-30T03:45:51;15.10;99.90
25640;DHT22;13497;48.322;16.204;2023-08-30T03:48:18;15.10;99.90
25640;DHT22;13497;48.322;16.204;2023-08-30T03:50:43;15.00;99.90
25640;DHT22;13497;48.322;16.204;2023-08-30T03:53:09;15.00;99.90
25640;DHT22;13497;48.322;16.204;2023-08-30T03:55:35;15.00;99.90
25640;DHT22;13497;48.322;16.204;2023-08-30T03:58:00;15.10;99.90
25640;DHT22;13497;48.322;16.204;2023-08-30T04:00:26;15.10;99.90
25640;DHT22;13497;48.322;16.204;2023-08-30T04:02:52;15.10;99.90
25640;DHT22;13497;48.322;16.204;2023-08-30T04:05:17;15.10;99.90
25640;DHT22;13497;48.322;16.204;2023-08-30T04:07:43;15.10;99.90
25640;DHT22;13497;48.322;16.204;2023-08-30T04:10:09;15.10;99.90
25640;DHT22;13497;48.322;16.204;2023-08-30T04:12:35;15.10;99.90
25640;DHT22;13497;48.322;16.204;2023-08-30T04:15:04;15.20;99.90
25640;DHT22;13497;48.322;16.204;2023-08-30T04:17:29;15.20;99.90
25640;DHT22;13497;48.322;16.204;2023-08-30T04:19:55;15.20;99.90
25640;DHT22;13497;48.322;16.204;2023-08-30T04:22:21;15.10;99.90
25640;DHT22;13497;48.322;16.204;2023-08-30T04:24:47;15.20;99.90
25640;DHT22;13497;48.322;16.204;2023-08-30T04:27:12;15.10;99.90
25640;DHT22;13497;48.322;16.204;2023-08-30T04:29:38;15.20;99.90
25640;DHT22;13497;48.322;16.204;2023-08-30T04:32:04;15.20;99.90
25640;DHT22;13497;48.322;16.204;2023-08-30T04:34:31;15.20;99.90
25640;DHT22;13497;48.322;16.204;2023-08-30T04:36:57;15.20;99.90
25640;DHT22;13497;48.322;16.204;2023-08-30T04:39:23;15.20;99.90
25640;DHT22;13497;48.322;16.204;2023-08-30T04:41:49;15.30;99.90
25640;DHT22;13497;48.322;16.204;2023-08-30T04:44:15;15.20;99.90
25640;DHT22;13497;48.322;16.204;2023-08-30T04:46:43;15.20;99.90
25640;DHT22;13497;48.322;16.204;2023-08-30T04:49:08;15.20;99.90
25640;DHT22;13497;48.322;16.204;2023-08-30T04:51:34;15.20;99.90
25640;DHT22;13497;48.322;16.204;2023-08-30T04:54:00;15.20;99.90
25640;DHT22;13497;48.322;16.204;2023-08-30T04:56:25;15.20;99.90
25640;DHT22;13497;48.322;16.204;2023-08-30T04:58:51;15.30;99.90
25640;DHT22;13497;48.322;16.204;2023-08-30T05:01:16;15.30;99.90
25640;DHT22;13497;48.322;16.204;2023-08-30T05:03:42;15.30;99.90
25640;DHT22;13497;48.322;16.204;2023-08-30T05:06:08;15.30;99.90
25640;DHT22;13497;48.322;16.204;2023-08-30T05:08:34;15.30;99.90
25640;DHT22;13497;48.322;16.204;2023-08-30T05:11:00;15.30;99.90
25640;DHT22;13497;48.322;16.204;2023-08-30T05:13:25;15.40;99.90
25640;DHT22;13497;48.322;16.204;2023-08-30T05:15:51;15.40;99.90
25640;DHT22;13497;48.322;16.204;2023-08-30T05:18:19;15.40;99.90
25640;DHT22;13497;48.322;16.204;2023-08-30T05:20:45;15.50;99.90
25640;DHT22;13497;48.322;16.204;2023-08-30T05:23:10;15.60;99.90
25640;DHT22;13497;48.322;16.204;2023-08-30T05:25:36;15.60;99.90
25640;DHT22;13497;48.322;16.204;2023-08-30T05:28:01;15.70;99.90
25640;DHT22;13497;48.322;16.204;2023-08-30T05:30:27;15.70;99.90
25640;DHT22;13497;48.322;16.204;2023-08-30T05:32:53;15.70;99.90
25640;DHT22;13497;48.322;16.204;2023-08-30T05:35:19;15.70;99.90
25640;DHT22;13497;48.322;16.204;2023-08-30T05:37:44;15.70;99.90
25640;DHT22;13497;48.322;16.204;2023-08-30T05:40:10;15.90;99.90
25640;DHT22;13497;48.322;16.204;2023-08-30T05:42:36;15.90;99.90
25640;DHT22;13497;48.322;16.204;2023-08-30T05:45:02;15.80;99.90
25640;DHT22;13497;48.322;16.204;2023-08-30T05:47:28;15.80;99.90
25640;DHT22;13497;48.322;16.204;2023-08-30T05:49:54;15.70;99.90
25640;DHT22;13497;48.322;16.204;2023-08-30T05:52:21;15.90;99.90
25640;DHT22;13497;48.322;16.204;2023-08-30T05:54:46;15.90;99.90
25640;DHT22;13497;48.322;16.204;2023-08-30T05:57:12;15.90;99.90
25640;DHT22;13497;48.322;16.204;2023-08-30T05:59:38;15.90;99.90
25640;DHT22;13497;48.322;16.204;2023-08-30T06:02:03;16.00;99.90
25640;DHT22;13497;48.322;16.204;2023-08-30T06:04:29;16.00;99.90
25640;DHT22;13497;48.322;16.204;2023-08-30T06:06:55;16.00;99.90
25640;DHT22;13497;48.322;16.204;2023-08-30T06:09:21;16.00;99.90
25640;DHT22;13497;48.322;16.204;2023-08-30T06:11:46;16.10;99.90
25640;DHT22;13497;48.322;16.204;2023-08-30T06:14:12;16.10;99.90
25640;DHT22;13497;48.322;16.204;2023-08-30T06:16:38;16.20;99.90
25640;DHT22;13497;48.322;16.204;2023-08-30T06:19:03;16.20;99.90
25640;DHT22;13497;48.322;16.204;2023-08-30T06:21:29;16.40;99.90
25640;DHT22;13497;48.322;16.204;2023-08-30T06:23:55;16.40;99.90
25640;DHT22;13497;48.322;16.204;2023-08-30T06:26:21;16.50;99.90
25640;DHT22;13497;48.322;16.204;2023-08-30T06:28:47;16.50;99.90
25640;DHT22;13497;48.322;16.204;2023-08-30T06:31:12;16.50;99.90
25640;DHT22;13497;48.322;16.204;2023-08-30T06:33:38;16.60;99.90
25640;DHT22;13497;48.322;16.204;2023-08-30T06:36:05;16.70;99.90
25640;DHT22;13497;48.322;16.204;2023-08-30T06:38:30;16.80;99.90
25640;DHT22;13497;48.322;16.204;2023-08-30T06:40:58;16.80;99.90
25640;DHT22;13497;48.322;16.204;2023-08-30T06:43:24;16.80;99.90
25640;DHT22;13497;48.322;16.204;2023-08-30T06:45:49;17.00;99.90
25640;DHT22;13497;48.322;16.204;2023-08-30T06:48:15;17.10;99.90
25640;DHT22;13497;48.322;16.204;2023-08-30T06:50:41;17.10;99.90
25640;DHT22;13497;48.322;16.204;2023-08-30T06:53:07;17.20;99.90
25640;DHT22;13497;48.322;16.204;2023-08-30T06:55:32;17.10;99.90
25640;DHT22;13497;48.322;16.204;2023-08-30T06:58:00;17.30;99.90
25640;DHT22;13497;48.322;16.204;2023-08-30T07:00:26;17.40;99.90
25640;DHT22;13497;48.322;16.204;2023-08-30T07:02:52;17.50;99.90
25640;DHT22;13497;48.322;16.204;2023-08-30T07:05:17;17.50;99.90
25640;DHT22;13497;48.322;16.204;2023-08-30T07:07:43;17.70;99.90
25640;DHT22;13497;48.322;16.204;2023-08-30T07:10:09;17.90;99.90
25640;DHT22;13497;48.322;16.204;2023-08-30T07:12:35;18.00;99.90
25640;DHT22;13497;48.322;16.204;2023-08-30T07:15:01;18.10;99.90
25640;DHT22;13497;48.322;16.204;2023-08-30T07:17:28;18.10;99.90
25640;DHT22;13497;48.322;16.204;2023-08-30T07:19:54;18.10;99.90
25640;DHT22;13497;48.322;16.204;2023-08-30T07:22:20;18.10;99.90
25640;DHT22;13497;48.322;16.204;2023-08-30T07:24:46;18.00;99.90
25640;DHT22;13497;48.322;16.204;2023-08-30T07:27:12;17.80;99.90
25640;DHT22;13497;48.322;16.204;2023-08-30T07:29:38;17.90;99.90
25640;DHT22;13497;48.322;16.204;2023-08-30T07:32:06;17.90;99.90
25640;DHT22;13497;48.322;16.204;2023-08-30T07:34:32;17.80;99.90
25640;DHT22;13497;48.322;16.204;2023-08-30T07:36:58;17.90;99.90
25640;DHT22;13497;48.322;16.204;2023-08-30T07:39:23;17.90;99.90
25640;DHT22;13497;48.322;16.204;2023-08-30T07:41:52;18.00;99.90
25640;DHT22;13497;48.322;16.204;2023-08-30T07:44:17;18.10;99.90
25640;DHT22;13497;48.322;16.204;2023-08-30T07:46:45;18.10;99.90
25640;DHT22;13497;48.322;16.204;2023-08-30T07:49:11;18.10;99.90
25640;DHT22;13497;48.322;16.204;2023-08-30T07:51:37;17.90;99.90
25640;DHT22;13497;48.322;16.204;2023-08-30T07:54:02;18.00;99.90
25640;DHT22;13497;48.322;16.204;2023-08-30T07:56:30;18.00;99.90
25640;DHT22;13497;48.322;16.204;2023-08-30T07:58:57;17.90;99.90
25640;DHT22;13497;48.322;16.204;2023-08-30T08:01:22;18.00;99.90
25640;DHT22;13497;48.322;16.204;2023-08-30T08:03:48;18.10;99.90
25640;DHT22;13497;48.322;16.204;2023-08-30T08:06:13;18.10;99.90
25640;DHT22;13497;48.322;16.204;2023-08-30T08:08:39;18.10;99.90
25640;DHT22;13497;48.322;16.204;2023-08-30T08:11:05;18.20;99.90
25640;DHT22;13497;48.322;16.204;2023-08-30T08:13:31;18.40;99.90
25640;DHT22;13497;48.322;16.204;2023-08-30T08:15:57;18.60;99.90
25640;DHT22;13497;48.322;16.204;2023-08-30T08:18:23;18.50;99.90
25640;DHT22;13497;48.322;16.204;2023-08-30T08:20:52;18.30;99.90
25640;DHT22;13497;48.322;16.204;2023-08-30T08:23:18;18.40;99.90
25640;DHT22;13497;48.322;16.204;2023-08-30T08:25:44;18.40;99.90
25640;DHT22;13497;48.322;16.204;2023-08-30T08:28:09;18.70;99.90
25640;DHT22;13497;48.322;16.204;2023-08-30T08:30:36;18.90;99.90
25640;DHT22;13497;48.322;16.204;2023-08-30T08:33:02;18.80;99.90
25640;DHT22;13497;48.322;16.204;2023-08-30T08:35:27;18.70;99.90
25640;DHT22;13497;48.322;16.204;2023-08-30T08:37:53;18.80;99.90
25640;DHT22;13497;48.322;16.204;2023-08-30T08:40:19;18.90;99.90
25640;DHT22;13497;48.322;16.204;2023-08-30T08:42:45;19.00;99.90
25640;DHT22;13497;48.322;16.204;2023-08-30T08:45:11;19.30;99.90
25640;DHT22;13497;48.322;16.204;2023-08-30T08:47:37;19.40;99.90
25640;DHT22;13497;48.322;16.204;2023-08-30T08:50:04;19.50;99.90
25640;DHT22;13497;48.322;16.204;2023-08-30T08:52:30;19.70;99.90
25640;DHT22;13497;48.322;16.204;2023-08-30T08:54:57;19.70;99.90
25640;DHT22;13497;48.322;16.204;2023-08-30T08:57:26;19.50;99.90
25640;DHT22;13497;48.322;16.204;2023-08-30T08:59:54;19.50;99.90
25640;DHT22;13497;48.322;16.204;2023-08-30T09:02:20;19.50;99.90
25640;DHT22;13497;48.322;16.204;2023-08-30T09:04:46;19.50;99.90
25640;DHT22;13497;48.322;16.204;2023-08-30T09:07:13;19.60;99.90
25640;DHT22;13497;48.322;16.204;2023-08-30T09:09:39;19.70;99.90
25640;DHT22;13497;48.322;16.204;2023-08-30T09:12:05;19.70;99.90
25640;DHT22;13497;48.322;16.204;2023-08-30T09:14:31;19.80;99.90
25640;DHT22;13497;48.322;16.204;2023-08-30T09:17:02;20.00;99.90
25640;DHT22;13497;48.322;16.204;2023-08-30T09:19:28;20.20;99.90
25640;DHT22;13497;48.322;16.204;2023-08-30T09:21:55;20.40;99.90
25640;DHT22;13497;48.322;16.204;2023-08-30T09:24:22;20.20;99.90
25640;DHT22;13497;48.322;16.204;2023-08-30T09:26:56;20.20;99.90
25640;DHT22;13497;48.322;16.204;2023-08-30T09:29:22;20.20;99.90
25640;DHT22;13497;48.322;16.204;2023-08-30T09:31:52;20.00;99.90
25640;DHT22;13497;48.322;16.204;2023-08-30T09:34:22;20.00;99.90
25640;DHT22;13497;48.322;16.204;2023-08-30T09:36:49;20.10;99.90
25640;DHT22;13497;48.322;16.204;2023-08-30T09:39:15;20.30;99.90
25640;DHT22;13497;48.322;16.204;2023-08-30T09:41:42;20.40;99.90
25640;DHT22;13497;48.322;16.204;2023-08-30T09:44:16;20.30;99.90
25640;DHT22;13497;48.322;16.204;2023-08-30T09:46:52;20.10;99.90
25640;DHT22;13497;48.322;16.204;2023-08-30T09:49:22;20.20;99.90
25640;DHT22;13497;48.322;16.204;2023-08-30T09:51:49;20.00;99.90
25640;DHT22;13497;48.322;16.204;2023-08-30T09:54:19;20.00;99.90
25640;DHT22;13497;48.322;16.204;2023-08-30T09:56:46;20.00;99.90
25640;DHT22;13497;48.322;16.204;2023-08-30T09:59:14;20.30;99.90
25640;DHT22;13497;48.322;16.204;2023-08-30T10:01:43;20.50;99.90
25640;DHT22;13497;48.322;16.204;2023-08-30T10:04:09;20.50;99.90
25640;DHT22;13497;48.322;16.204;2023-08-30T10:06:37;20.40;99.90
25640;DHT22;13497;48.322;16.204;2023-08-30T10:09:04;20.30;99.90
25640;DHT22;13497;48.322;16.204;2023-08-30T10:11:37;20.10;99.90
25640;DHT22;13497;48.322;16.204;2023-08-30T10:14:04;20.10;99.90
25640;DHT22;13497;48.322;16.204;2023-08-30T10:16:51;20.10;99.90
25640;DHT22;13497;48.322;16.204;2023-08-30T10:19:37;20.10;99.90
25640;DHT22;13497;48.322;16.204;2023-08-30T10:22:04;20.30;99.90
25640;DHT22;13497;48.322;16.204;2023-08-30T10:24:46;20.30;99.90
25640;DHT22;13497;48.322;16.204;2023-08-30T10:27:15;20.40;99.90
25640;DHT22;13497;48.322;16.204;2023-08-30T10:29:43;20.40;99.90
25640;DHT22;13497;48.322;16.204;2023-08-30T10:32:09;20.30;99.90
25640;DHT22;13497;48.322;16.204;2023-08-30T10:34:36;20.20;99.90
25640;DHT22;13497;48.322;16.204;2023-08-30T10:37:02;20.30;99.90
25640;DHT22;13497;48.322;16.204;2023-08-30T10:39:40;20.50;99.90
25640;DHT22;13497;48.322;16.204;2023-08-30T10:42:10;20.50;99.90
25640;DHT22;13497;48.322;16.204;2023-08-30T10:45:01;20.40;99.90
25640;DHT22;13497;48.322;16.204;2023-08-30T10:47:31;20.40;99.90
25640;DHT22;13497;48.322;16.204;2023-08-30T10:49:59;20.40;99.90
25640;DHT22;13497;48.322;16.204;2023-08-30T10:52:27;20.40;99.90
25640;DHT22;13497;48.322;16.204;2023-08-30T10:55:03;20.40;99.90
25640;DHT22;13497;48.322;16.204;2023-08-30T10:57:29;20.80;99.90
25640;DHT22;13497;48.322;16.204;2023-08-30T11:00:24;21.00;99.90
25640;DHT22;13497;48.322;16.204;2023-08-30T11:02:52;21.10;99.90
25640;DHT22;13497;48.322;16.204;2023-08-30T11:05:25;21.10;99.90
25640;DHT22;13497;48.322;16.204;2023-08-30T11:07:52;21.30;99.90
25640;DHT22;13497;48.322;16.204;2023-08-30T11:10:18;21.50;99.90
25640;DHT22;13497;48.322;16.204;2023-08-30T11:12:45;21.60;99.90
25640;DHT22;13497;48.322;16.204;2023-08-30T11:15:12;21.50;99.90
25640;DHT22;13497;48.322;16.204;2023-08-30T11:17:39;21.50;99.90
25640;DHT22;13497;48.322;16.204;2023-08-30T11:20:13;21.20;99.90
25640;DHT22;13497;48.322;16.204;2023-08-30T11:22:43;21.00;99.90
25640;DHT22;13497;48.322;16.204;2023-08-30T11:25:11;21.10;99.90
25640;DHT22;13497;48.322;16.204;2023-08-30T11:27:37;21.10;99.90
25640;DHT22;13497;48.322;16.204;2023-08-30T11:30:05;21.20;99.90
25640;DHT22;13497;48.322;16.204;2023-08-30T11:32:41;21.40;99.90
25640;DHT22;13497;48.322;16.204;2023-08-30T11:35:10;21.50;99.90
25640;DHT22;13497;48.322;16.204;2023-08-30T11:37:36;21.70;99.90
25640;DHT22;13497;48.322;16.204;2023-08-30T11:40:03;21.60;99.90
25640;DHT22;13497;48.322;16.204;2023-08-30T11:42:30;21.50;99.90
25640;DHT22;13497;48.322;16.204;2023-08-30T11:44:58;21.70;99.90
25640;DHT22;13497;48.322;16.204;2023-08-30T11:47:24;21.60;99.90
25640;DHT22;13497;48.322;16.204;2023-08-30T11:49:53;21.60;99.90
25640;DHT22;13497;48.322;16.204;2023-08-30T11:52:20;21.70;99.50
25640;DHT22;13497;48.322;16.204;2023-08-30T11:54:47;21.60;99.60
25640;DHT22;13497;48.322;16.204;2023-08-30T11:57:13;21.30;99.90
25640;DHT22;13497;48.322;16.204;2023-08-30T11:59:39;21.10;99.90
25640;DHT22;13497;48.322;16.204;2023-08-30T12:02:06;21.00;99.80
25640;DHT22;13497;48.322;16.204;2023-08-30T12:04:32;20.70;99.90
25640;DHT22;13497;48.322;16.204;2023-08-30T12:06:58;20.80;99.90
25640;DHT22;13497;48.322;16.204;2023-08-30T12:09:33;20.90;99.90
25640;DHT22;13497;48.322;16.204;2023-08-30T12:12:12;21.00;99.90
25640;DHT22;13497;48.322;16.204;2023-08-30T12:14:38;21.00;99.80
25640;DHT22;13497;48.322;16.204;2023-08-30T12:17:04;21.00;99.80
25640;DHT22;13497;48.322;16.204;2023-08-30T12:19:31;21.10;99.90
25640;DHT22;13497;48.322;16.204;2023-08-30T12:22:04;21.30;99.90
25640;DHT22;13497;48.322;16.204;2023-08-30T12:24:43;21.10;99.90
25640;DHT22;13497;48.322;16.204;2023-08-30T12:27:09;21.10;99.90
25640;DHT22;13497;48.322;16.204;2023-08-30T12:29:35;21.10;99.90
25640;DHT22;13497;48.322;16.204;2023-08-30T12:32:00;21.10;99.90
25640;DHT22;13497;48.322;16.204;2023-08-30T12:34:26;21.10;99.80
25640;DHT22;13497;48.322;16.204;2023-08-30T12:36:52;21.30;99.90
25640;DHT22;13497;48.322;16.204;2023-08-30T12:39:17;21.50;99.60
25640;DHT22;13497;48.322;16.204;2023-08-30T12:41:43;21.70;99.50
25640;DHT22;13497;48.322;16.204;2023-08-30T12:44:09;21.80;99.50
25640;DHT22;13497;48.322;16.204;2023-08-30T12:46:35;21.70;99.50
25640;DHT22;13497;48.322;16.204;2023-08-30T12:49:01;21.60;99.50
25640;DHT22;13497;48.322;16.204;2023-08-30T12:51:26;21.60;99.50
25640;DHT22;13497;48.322;16.204;2023-08-30T12:53:52;21.50;99.50
25640;DHT22;13497;48.322;16.204;2023-08-30T12:56:17;21.30;99.70
25640;DHT22;13497;48.322;16.204;2023-08-30T12:58:43;21.20;99.70
25640;DHT22;13497;48.322;16.204;2023-08-30T13:01:09;21.20;99.90
25640;DHT22;13497;48.322;16.204;2023-08-30T13:03:34;21.30;99.90
25640;DHT22;13497;48.322;16.204;2023-08-30T13:06:00;21.50;99.40
25640;DHT22;13497;48.322;16.204;2023-08-30T13:08:27;21.60;99.50
25640;DHT22;13497;48.322;16.204;2023-08-30T13:10:52;21.80;99.10
25640;DHT22;13497;48.322;16.204;2023-08-30T13:13:18;21.70;99.10
25640;DHT22;13497;48.322;16.204;2023-08-30T13:15:44;21.50;99.10
25640;DHT22;13497;48.322;16.204;2023-08-30T13:18:09;21.40;99.20
25640;DHT22;13497;48.322;16.204;2023-08-30T13:20:38;21.30;99.30
25640;DHT22;13497;48.322;16.204;2023-08-30T13:23:04;21.30;99.40
25640;DHT22;13497;48.322;16.204;2023-08-30T13:25:30;21.30;99.50
25640;DHT22;13497;48.322;16.204;2023-08-30T13:27:55;21.20;99.70
25640;DHT22;13497;48.322;16.204;2023-08-30T13:30:21;21.30;99.50
25640;DHT22;13497;48.322;16.204;2023-08-30T13:32:47;21.40;99.30
25640;DHT22;13497;48.322;16.204;2023-08-30T13:35:12;21.50;98.80
25640;DHT22;13497;48.322;16.204;2023-08-30T13:37:38;21.60;98.70
25640;DHT22;13497;48.322;16.204;2023-08-30T13:40:04;21.60;98.80
25640;DHT22;13497;48.322;16.204;2023-08-30T13:42:32;21.50;98.80
25640;DHT22;13497;48.322;16.204;2023-08-30T13:45:00;21.30;98.90
25640;DHT22;13497;48.322;16.204;2023-08-30T13:47:25;21.40;98.70
25640;DHT22;13497;48.322;16.204;2023-08-30T13:49:51;21.40;98.80
25640;DHT22;13497;48.322;16.204;2023-08-30T13:52:19;21.40;99.30
25640;DHT22;13497;48.322;16.204;2023-08-30T13:54:47;21.60;99.10
25640;DHT22;13497;48.322;16.204;2023-08-30T13:57:15;21.40;98.50
25640;DHT22;13497;48.322;16.204;2023-08-30T13:59:41;21.30;98.80
25640;DHT22;13497;48.322;16.204;2023-08-30T14:02:06;21.20;98.70
25640;DHT22;13497;48.322;16.204;2023-08-30T14:04:32;21.30;98.20
25640;DHT22;13497;48.322;16.204;2023-08-30T14:06:58;21.10;98.30
25640;DHT22;13497;48.322;16.204;2023-08-30T14:09:24;21.00;98.80
25640;DHT22;13497;48.322;16.204;2023-08-30T14:11:50;21.00;99.00
25640;DHT22;13497;48.322;16.204;2023-08-30T14:14:16;21.20;99.30
25640;DHT22;13497;48.322;16.204;2023-08-30T14:16:41;21.40;99.10
25640;DHT22;13497;48.322;16.204;2023-08-30T14:19:07;21.60;98.70
25640;DHT22;13497;48.322;16.204;2023-08-30T14:21:33;21.60;98.70
25640;DHT22;13497;48.322;16.204;2023-08-30T14:23:59;21.60;99.10
25640;DHT22;13497;48.322;16.204;2023-08-30T14:26:27;21.30;99.00
25640;DHT22;13497;48.322;16.204;2023-08-30T14:28:53;21.10;99.30
25640;DHT22;13497;48.322;16.204;2023-08-30T14:31:19;21.00;99.80
25640;DHT22;13497;48.322;16.204;2023-08-30T14:33:45;21.00;99.60
25640;DHT22;13497;48.322;16.204;2023-08-30T14:36:11;21.00;99.50
25640;DHT22;13497;48.322;16.204;2023-08-30T14:38:37;21.20;99.70
25640;DHT22;13497;48.322;16.204;2023-08-30T14:41:03;21.40;99.70
25640;DHT22;13497;48.322;16.204;2023-08-30T14:43:29;21.70;98.90
25640;DHT22;13497;48.322;16.204;2023-08-30T14:46:01;21.70;98.80
25640;DHT22;13497;48.322;16.204;2023-08-30T14:48:27;21.40;98.70
25640;DHT22;13497;48.322;16.204;2023-08-30T14:50:53;21.20;99.00
25640;DHT22;13497;48.322;16.204;2023-08-30T14:53:19;21.00;99.00
25640;DHT22;13497;48.322;16.204;2023-08-30T14:55:45;21.10;99.40
25640;DHT22;13497;48.322;16.204;2023-08-30T14:58:12;21.20;99.40
25640;DHT22;13497;48.322;16.204;2023-08-30T15:00:39;21.20;99.20
25640;DHT22;13497;48.322;16.204;2023-08-30T15:03:05;21.10;99.60
25640;DHT22;13497;48.322;16.204;2023-08-30T15:05:30;21.00;99.80
25640;DHT22;13497;48.322;16.204;2023-08-30T15:07:56;21.00;99.50
25640;DHT22;13497;48.322;16.204;2023-08-30T15:10:22;21.00;99.50
25640;DHT22;13497;48.322;16.204;2023-08-30T15:12:48;21.10;99.00
25640;DHT22;13497;48.322;16.204;2023-08-30T15:15:14;21.00;99.30
25640;DHT22;13497;48.322;16.204;2023-08-30T15:17:40;20.90;99.50
25640;DHT22;13497;48.322;16.204;2023-08-30T15:20:07;21.00;99.70